Nearby METAR Reports

 

KSJC - San Jose, California, USA
Distance from station: NO 14km
Uppdaterad: 30/01/2023 05:53
Delvis molnigt
Delvis molnigt
 Vind frn V
Vind: V 9 km/h
Temperatur: 8°C
Wind Chill: 6°C
Daggpunkt: 4°C
Luftfuktighet: 76%
Barometer: 1012.2 hPa
Clouds: Delvis molnigt
Visibility: 16 km
Cloud details: Delvis molnigt 1158 m
Delvis molnigt 1676 m
2023/01/30 04:53 KSJC 300453Z 27005KT 10SM SCT038 SCT055 08/04 A2989 RMK AO2 SLP122 T00780039
KNUQ - Moffett Nas/Mtn, California, USA
Distance from station: N 14km
Uppdaterad: 30/01/2023 04:50
Genommulet
Genommulet
 Vind frn N
Vind: N 20 km/h
Temperatur: 8°C
Wind Chill: 4°C
Daggpunkt: 4°C
Luftfuktighet: 76%
Barometer: 1011.9 hPa
Clouds: Genommulet
Visibility: 16 km
Cloud details: vervgande molnigt 610 m
vervgande molnigt 732 m
Genommulet 945 m
2023/01/30 03:50 KNUQ 300350Z AUTO 36011KT 10SM BKN020 BKN024 OVC031 08/04 A2988 RMK AO2
 
KPAO - Palo Alto, California, USA
Distance from station: NNV 23km
Uppdaterad: 30/01/2023 05:47
Delvis molnigt
Delvis molnigt
 Vind frn N
Vind: N 6 km/h
Temperatur: 8°C
Daggpunkt: 4°C
Luftfuktighet: 76%
Barometer: 1012.9 hPa
Clouds: Delvis molnigt
Visibility: 16 km
Cloud details: Delvis molnigt 914 m
2023/01/30 04:47 KPAO 300447Z 35003KT 10SM SCT030 08/04 A2991 RMK LAST
KRHV - San Jose/Reid, California, USA
Distance from station: ONO 19km
Uppdaterad: 30/01/2023 00:51
NOT Current
vervgande molnigt
vervgande molnigt
 Vind frn V
Vind: V 13 km/h
Temperatur: 10°C
Wind Chill: 8°C
Daggpunkt: 3°C
Luftfuktighet: 62%
Barometer: 1009.8 hPa
Clouds: vervgande molnigt
Visibility: 16 km
Cloud details: Delvis molnigt 762 m
vervgande molnigt 1372 m
vervgande molnigt 2134 m
2023/01/29 23:51 KRHV 292351Z 28007KT 10SM SCT025 BKN045 BKN070 10/03 A2982
 
KOAK - Oakland, California, USA
Distance from station: NNV 50km
Uppdaterad: 30/01/2023 05:53
Delvis molnigt
Delvis molnigt
 Vind frn NO
Vind: NO 22 km/h
Temperatur: 8°C
Wind Chill: 4°C
Daggpunkt: 3°C
Luftfuktighet: 71%
Barometer: 1012.9 hPa
Clouds: Delvis molnigt
Visibility: 16 km
Cloud details: Delvis molnigt 1006 m
Delvis molnigt 2438 m
2023/01/30 04:53 KOAK 300453Z 04012KT 10SM SCT033 SCT080 08/03 A2991 RMK AO2 SLP129 T00780028
KSQL - San Carlos Airpo, California, USA
Distance from station: NV 34km
Uppdaterad: 30/01/2023 05:47
Few Clouds
Few Clouds
 Vind frn calm
Vind: Vindstilla
Temperatur: 8°C
Daggpunkt: 5°C
Luftfuktighet: 82%
Barometer: 1013.2 hPa
Clouds: Few Clouds
Visibility: 16 km
Cloud details: Few Clouds 518 m
2023/01/30 04:47 KSQL 300447Z 00000KT 10SM FEW017 08/05 A2992 RMK LAST
 
KSFO - San Francisco, California, USA
Distance from station: NV 49km
Uppdaterad: 30/01/2023 05:56
vervgande molnigt
vervgande molnigt
 Vind frn NO
Vind: NO 30 km/h
Temperatur: 10°C
Wind Chill: 7°C
Daggpunkt: 5°C
Luftfuktighet: 71%
Barometer: 1012.9 hPa
Clouds: vervgande molnigt
Visibility: 16 km
Cloud details: Few Clouds 823 m
vervgande molnigt 1311 m
2023/01/30 04:56 KSFO 300456Z 05016KT 10SM FEW027 BKN043 10/05 A2991 RMK AO2 SLP128 T01000050 $
KE16 - San Martin, California, USA
Distance from station: OSO 43km
Uppdaterad: 30/01/2023 05:55
Genommulet
Genommulet
 Vind frn NNV
Vind: NNV 9 km/h
Temperatur: 7°C
Wind Chill: 6°C
Daggpunkt: 5°C
Luftfuktighet: 87%
Barometer: 1012.5 hPa
Clouds: Genommulet
Visibility: 16 km
Cloud details: vervgande molnigt 1311 m
Genommulet 2134 m
2023/01/30 04:55 KE16 300455Z AUTO 33005KT 10SM BKN043 OVC070 07/05 A2990 RMK AO2 PWINO PNO
 
KWVI - Watsonville, California, USA
Distance from station: SSO 44km
Uppdaterad: 30/01/2023 05:53
vervgande molnigt
vervgande molnigt
 Vind frn NO
Vind: NO 7 km/h
Temperatur: 7°C
Wind Chill: 6°C
Daggpunkt: 3°C
Luftfuktighet: 76%
Barometer: 1011.5 hPa
Clouds: vervgande molnigt
Visibility: 16 km
Cloud details: Few Clouds 1829 m
vervgande molnigt 3353 m
2023/01/30 04:53 KWVI 300453Z AUTO 05004KT 10SM FEW060 BKN110 07/03 A2987 RMK AO2 SLP116 T00670028
KHAF - Half Moon Bay, California, USA
Distance from station: VNV 50km
Uppdaterad: 30/01/2023 05:55
Genommulet
Genommulet
 Vind frn ONO
Vind: ONO 15 km/h, Vindby: 30 km/h
Temperatur: 8°C
Wind Chill: 5°C
Daggpunkt: 4°C
Luftfuktighet: 76%
Barometer: 1012.5 hPa
Clouds: Genommulet
Visibility: 16 km
Cloud details: Few Clouds 975 m
vervgande molnigt 1219 m
Genommulet 1372 m
2023/01/30 04:55 KHAF 300455Z AUTO 07008G16KT 10SM FEW032 BKN040 OVC045 08/04 A2990 RMK AO2
 
KHWD - Hayward, California, USA
Distance from station: N 44km
Uppdaterad: 30/01/2023 05:54
vervgande molnigt
vervgande molnigt
 Vind frn calm
Vind: Vindstilla
Temperatur: 9°C
Daggpunkt: 4°C
Luftfuktighet: 71%
Barometer: 1012.5 hPa
Clouds: vervgande molnigt
Visibility: 16 km
Cloud details: vervgande molnigt 1311 m
vervgande molnigt 2591 m
2023/01/30 04:54 KHWD 300454Z AUTO 00000KT 10SM BKN043 BKN085 09/04 A2990 RMK AO2 SLP136 T00890044 $
KLVK - Livermore, California, USA
Distance from station: NNO 51km
Uppdaterad: 30/01/2023 05:53
Genommulet
Genommulet
 Vind frn NO
Vind: NO 7 km/h
Temperatur: 8°C
Wind Chill: 7°C
Daggpunkt: 4°C
Luftfuktighet: 76%
Barometer: 1012.2 hPa
Clouds: Genommulet
Visibility: 16 km
Cloud details: Delvis molnigt 701 m
vervgande molnigt 914 m
Genommulet 1524 m
2023/01/30 04:53 KLVK 300453Z 04004KT 10SM SCT023 BKN030 OVC050 08/04 A2989 RMK AO2 SLP121 T00780044